createdAt,value
2018-02-12T00:02:07.589Z,5.27
2018-02-12T00:04:38.896Z,5.33
2018-02-12T00:07:09.955Z,5.40
2018-02-12T00:09:40.315Z,5.20
2018-02-12T00:12:11.100Z,4.89
2018-02-12T00:14:45.101Z,4.70
2018-02-12T00:17:16.874Z,4.71
2018-02-12T00:19:47.363Z,4.73
2018-02-12T00:22:18.205Z,4.54
2018-02-12T00:24:53.541Z,4.49
2018-02-12T00:27:31.128Z,4.45
2018-02-12T00:30:06.181Z,4.49
2018-02-12T00:32:37.105Z,4.59
2018-02-12T00:35:09.002Z,4.49
2018-02-12T00:37:39.218Z,4.48
2018-02-12T00:40:10.269Z,4.64
2018-02-12T00:42:41.264Z,4.56
2018-02-12T00:45:14.441Z,4.63
2018-02-12T00:47:45.946Z,4.68
2018-02-12T00:50:17.269Z,4.67
2018-02-12T00:52:47.816Z,4.58
2018-02-12T00:55:19.013Z,4.71
2018-02-12T00:57:50.338Z,4.78
2018-02-12T01:00:22.073Z,4.72
2018-02-12T01:02:54.329Z,4.78
2018-02-12T01:05:25.885Z,4.69
2018-02-12T01:07:56.679Z,4.85
2018-02-12T01:10:28.588Z,4.82
2018-02-12T01:12:59.184Z,4.76
2018-02-12T01:15:32.643Z,4.80
2018-02-12T01:18:04.713Z,4.84
2018-02-12T01:20:35.919Z,4.81
2018-02-12T01:23:06.749Z,4.89
2018-02-12T01:25:39.604Z,4.73
2018-02-12T01:28:11.454Z,4.72
2018-02-12T01:30:42.039Z,4.80
2018-02-12T01:33:12.550Z,4.75
2018-02-12T01:35:43.636Z,4.70
2018-02-12T01:38:14.332Z,4.63
2018-02-12T01:40:45.186Z,4.64
2018-02-12T01:43:16.563Z,4.76
2018-02-12T01:45:48.139Z,4.62
2018-02-12T01:48:18.896Z,4.67
2018-02-12T01:50:50.025Z,4.62
2018-02-12T01:53:20.325Z,4.65
2018-02-12T01:55:51.111Z,4.54
2018-02-12T01:58:21.872Z,4.55
2018-02-12T02:00:52.584Z,4.56
2018-02-12T02:03:23.759Z,4.69
2018-02-12T02:05:54.351Z,4.63
2018-02-12T02:08:26.369Z,4.64
2018-02-12T02:10:57.686Z,4.54
2018-02-12T02:13:28.371Z,4.51
2018-02-12T02:16:04.633Z,4.60
2018-02-12T02:18:35.676Z,4.56
2018-02-12T02:21:07.105Z,4.67
2018-02-12T02:23:37.484Z,4.61
2018-02-12T02:26:09.587Z,4.66
2018-02-12T02:28:40.152Z,4.58
2018-02-12T02:31:11.226Z,4.62
2018-02-12T02:33:42.096Z,4.66
2018-02-12T02:36:12.924Z,4.61
2018-02-12T02:38:44.348Z,4.37
2018-02-12T02:41:14.796Z,4.39
2018-02-12T02:43:45.148Z,4.51
2018-02-12T02:46:16.421Z,4.47
2018-02-12T02:48:47.702Z,4.65
2018-02-12T02:51:19.468Z,4.58
2018-02-12T02:53:50.305Z,4.57
2018-02-12T02:56:20.449Z,4.55
2018-02-12T02:58:51.655Z,4.46
2018-02-12T03:01:22.176Z,4.56
2018-02-12T03:03:52.748Z,4.57
2018-02-12T03:06:23.659Z,4.70
2018-02-12T03:08:54.638Z,4.64
2018-02-12T03:11:25.792Z,4.54
2018-02-12T03:13:56.308Z,4.61
2018-02-12T03:16:27.745Z,4.69
2018-02-12T03:18:58.447Z,4.79
2018-02-12T03:21:28.657Z,4.70
2018-02-12T03:23:59.093Z,4.79
2018-02-12T03:26:29.664Z,4.86
2018-02-12T03:28:59.873Z,4.91
2018-02-12T03:31:30.237Z,4.79
2018-02-12T03:34:01.284Z,4.83
2018-02-12T03:36:32.187Z,4.91
2018-02-12T03:39:02.950Z,4.83
2018-02-12T03:41:34.032Z,4.91
2018-02-12T03:44:04.926Z,4.93
2018-02-12T03:46:36.780Z,4.88
2018-02-12T03:49:08.482Z,5.06
2018-02-12T03:51:40.301Z,4.86
2018-02-12T03:54:11.171Z,4.98
2018-02-12T03:56:42.336Z,4.96
2018-02-12T03:59:13.238Z,4.87
2018-02-12T04:01:44.184Z,4.81
2018-02-12T04:04:15.562Z,4.78
2018-02-12T04:06:46.686Z,4.86
2018-02-12T04:09:17.911Z,4.94
2018-02-12T04:11:49.185Z,4.85
2018-02-12T04:14:24.324Z,4.92
2018-02-12T04:16:55.697Z,4.81
2018-02-12T04:19:26.559Z,4.93
2018-02-12T04:21:58.085Z,4.91
2018-02-12T04:24:28.703Z,4.76
2018-02-12T04:26:59.253Z,4.87
2018-02-12T04:29:30.695Z,4.88
2018-02-12T04:32:02.298Z,5.00
2018-02-12T04:34:33.157Z,4.86
2018-02-12T04:37:04.450Z,4.92
2018-02-12T04:39:34.993Z,4.84
2018-02-12T04:42:07.024Z,4.94
2018-02-12T04:44:38.829Z,4.96
2018-02-12T04:47:10.288Z,4.97
2018-02-12T04:49:41.920Z,4.90
2018-02-12T04:52:14.134Z,4.73
2018-02-12T04:54:44.987Z,4.68
2018-02-12T04:57:15.844Z,4.73
2018-02-12T04:59:46.524Z,4.73
2018-02-12T05:02:19.091Z,4.55
2018-02-12T05:04:50.815Z,4.64
2018-02-12T05:07:23.324Z,4.68
2018-02-12T05:09:54.427Z,4.73
2018-02-12T05:12:25.178Z,4.76
2018-02-12T05:14:55.636Z,4.80
2018-02-12T05:17:27.061Z,4.73
2018-02-12T05:19:57.429Z,4.75
2018-02-12T05:22:28.251Z,4.84
2018-02-12T05:24:59.982Z,4.75
2018-02-12T05:27:30.787Z,4.83
2018-02-12T05:30:03.495Z,4.74
2018-02-12T05:32:34.563Z,4.78
2018-02-12T05:35:06.288Z,4.68
2018-02-12T05:37:37.192Z,4.67
2018-02-12T05:40:07.545Z,4.72
2018-02-12T05:42:38.725Z,4.68
2018-02-12T05:47:52.146Z,4.65
2018-02-12T05:50:25.079Z,4.58
2018-02-12T05:52:55.872Z,4.45
2018-02-12T05:55:26.801Z,4.40
2018-02-12T06:00:46.730Z,4.59
2018-02-12T06:03:17.060Z,4.51
2018-02-12T06:05:49.048Z,4.54
2018-02-12T06:08:20.369Z,4.49
2018-02-12T06:10:51.662Z,4.50
2018-02-12T06:13:22.281Z,4.53
2018-02-12T06:15:53.653Z,4.59
2018-02-12T06:18:25.194Z,4.57
2018-02-12T06:20:57.754Z,4.43
2018-02-12T06:23:28.818Z,4.43
2018-02-12T06:26:01.465Z,4.46
2018-02-12T06:28:34.510Z,4.47
2018-02-12T06:31:05.810Z,4.44
2018-02-12T06:33:36.200Z,4.53
2018-02-12T06:36:06.710Z,4.36
2018-02-12T06:38:40.000Z,4.51
2018-02-12T06:41:21.650Z,4.60
2018-02-12T06:43:55.378Z,4.78
2018-02-12T06:46:27.264Z,4.88
2018-02-12T06:49:01.800Z,4.93
2018-02-12T06:51:33.320Z,4.88
2018-02-12T06:54:04.998Z,4.86
2018-02-12T06:56:35.590Z,4.84
2018-02-12T06:59:06.839Z,4.84
2018-02-12T07:01:38.151Z,4.76
2018-02-12T07:04:09.504Z,4.81
2018-02-12T07:06:43.568Z,4.89
2018-02-12T07:09:14.354Z,4.97
2018-02-12T07:11:46.979Z,4.69
2018-02-12T07:14:20.858Z,4.96
2018-02-12T07:16:54.462Z,5.03
2018-02-12T07:19:30.501Z,5.19
2018-02-12T07:22:13.485Z,4.79
2018-02-12T07:24:51.870Z,5.09
2018-02-12T07:27:31.498Z,5.26
2018-02-12T07:30:05.822Z,5.27
2018-02-12T07:32:37.892Z,5.26
2018-02-12T07:35:09.023Z,5.24
2018-02-12T07:37:40.035Z,5.18
2018-02-12T07:40:21.266Z,5.31
2018-02-12T07:42:53.106Z,5.17
2018-02-12T07:45:25.349Z,5.01
2018-02-12T07:47:58.569Z,5.09
2018-02-12T07:50:29.708Z,5.24
2018-02-12T07:53:00.858Z,5.26
2018-02-12T07:55:32.896Z,5.29
2018-02-12T07:58:04.803Z,5.30
2018-02-12T08:00:37.487Z,5.27
2018-02-12T08:03:27.425Z,5.27
2018-02-12T08:05:58.651Z,5.30
2018-02-12T08:08:30.952Z,5.24
2018-02-12T08:11:01.459Z,5.42
2018-02-12T08:13:40.277Z,5.24
2018-02-12T08:16:26.300Z,5.28
2018-02-12T08:18:58.086Z,4.90
2018-02-12T08:21:30.887Z,5.05
2018-02-12T08:24:02.196Z,5.12
2018-02-12T08:26:34.247Z,5.20
2018-02-12T08:29:05.820Z,5.33
2018-02-12T08:31:37.671Z,5.28
2018-02-12T08:34:09.892Z,5.29
2018-02-12T08:36:40.834Z,5.52
2018-02-12T08:39:12.731Z,5.76
2018-02-12T08:41:45.569Z,5.67
2018-02-12T08:44:16.437Z,5.68
2018-02-12T08:46:48.016Z,5.69
2018-02-12T08:49:18.674Z,5.69
2018-02-12T08:51:50.513Z,5.71
2018-02-12T08:55:09.963Z,5.57
2018-02-12T08:57:41.282Z,5.59
2018-02-12T09:00:16.459Z,6.13
2018-02-12T09:02:48.504Z,6.97
2018-02-12T09:05:19.413Z,7.52
2018-02-12T09:07:52.556Z,7.52
2018-02-12T09:10:25.660Z,8.16
2018-02-12T09:12:57.741Z,8.27
2018-02-12T09:15:30.174Z,8.70
2018-02-12T09:18:07.478Z,8.85
2018-02-12T09:20:38.419Z,9.39
2018-02-12T09:23:09.623Z,9.69
2018-02-12T09:25:41.977Z,10.06
2018-02-12T09:28:25.742Z,10.76
2018-02-12T09:30:58.261Z,10.70
2018-02-12T09:33:36.006Z,9.83
2018-02-12T09:36:10.012Z,9.29
2018-02-12T09:38:41.058Z,9.80
2018-02-12T09:41:11.877Z,10.50
2018-02-12T09:46:14.464Z,9.25
2018-02-12T09:48:46.102Z,8.99
2018-02-12T09:51:17.545Z,8.65
2018-02-12T09:53:49.188Z,7.93
2018-02-12T09:56:19.774Z,7.60
2018-02-12T09:58:50.810Z,7.58
2018-02-12T10:01:22.779Z,7.61
2018-02-12T10:03:53.983Z,6.64
2018-02-12T10:06:24.970Z,6.80
2018-02-12T10:08:58.597Z,6.51
2018-02-12T10:11:31.319Z,7.58
2018-02-12T10:14:10.697Z,7.91
2018-02-12T10:16:44.031Z,7.69
2018-02-12T10:19:15.249Z,7.16
2018-02-12T10:21:49.392Z,7.30
2018-02-12T10:24:19.825Z,7.20
2018-02-12T10:26:50.337Z,7.52
2018-02-12T10:29:21.469Z,7.40
2018-02-12T10:31:56.376Z,7.50
2018-02-12T10:34:29.475Z,7.21
2018-02-12T10:37:03.176Z,7.16
2018-02-12T10:39:36.220Z,7.32
2018-02-12T10:42:19.233Z,7.35
2018-02-12T10:44:51.825Z,8.74
2018-02-12T10:47:26.667Z,8.68
2018-02-12T10:49:57.763Z,8.35
2018-02-12T10:52:28.644Z,8.37
2018-02-12T10:57:22.879Z,9.15
2018-02-12T10:59:55.277Z,8.54
2018-02-12T11:02:26.650Z,8.58
2018-02-12T11:04:57.881Z,8.83
2018-02-12T11:07:29.402Z,10.19
2018-02-12T11:10:00.266Z,11.17
2018-02-12T11:12:31.151Z,11.36
2018-02-12T11:15:04.995Z,11.02
2018-02-12T11:17:35.965Z,10.20
2018-02-12T11:20:07.661Z,10.49
2018-02-12T11:22:39.228Z,11.39
2018-02-12T11:25:10.903Z,11.73
2018-02-12T11:27:41.269Z,11.21
2018-02-12T11:30:19.258Z,10.88
2018-02-12T11:32:52.017Z,11.00
2018-02-12T11:35:24.498Z,9.99
2018-02-12T11:37:55.505Z,9.64
2018-02-12T11:40:27.568Z,9.93
2018-02-12T11:42:58.437Z,9.87
2018-02-12T11:45:39.026Z,9.36
2018-02-12T11:48:10.364Z,9.16
2018-02-12T11:50:45.689Z,9.96
2018-02-12T11:53:17.579Z,10.55
2018-02-12T11:55:48.741Z,10.54
2018-02-12T11:58:19.786Z,11.02
2018-02-12T12:00:52.269Z,10.80
2018-02-12T12:03:23.339Z,11.09
2018-02-12T12:05:54.456Z,9.90
2018-02-12T12:08:25.911Z,11.08
2018-02-12T12:10:58.059Z,11.83
2018-02-12T12:13:29.839Z,12.23
2018-02-12T12:16:04.334Z,11.63
2018-02-12T12:18:36.399Z,11.63
2018-02-12T12:21:09.238Z,11.66
2018-02-12T12:23:41.114Z,10.99
2018-02-12T12:26:13.651Z,10.51
2018-02-12T12:28:50.381Z,10.39
2018-02-12T12:31:22.085Z,9.73
2018-02-12T12:33:54.524Z,9.48
2018-02-12T12:36:35.603Z,9.91
2018-02-12T12:39:08.060Z,10.20
2018-02-12T12:41:40.388Z,10.13
2018-02-12T12:44:12.240Z,10.34
2018-02-12T12:46:43.296Z,10.23
2018-02-12T12:49:14.844Z,9.97
2018-02-12T12:51:45.521Z,10.14
2018-02-12T12:54:16.792Z,10.20
2018-02-12T12:56:47.838Z,10.18
2018-02-12T12:59:19.492Z,9.95
2018-02-12T13:01:52.526Z,10.13
2018-02-12T13:04:23.551Z,10.05
2018-02-12T13:06:56.336Z,10.54
2018-02-12T13:09:28.344Z,10.65
2018-02-12T13:11:59.834Z,10.33
2018-02-12T13:14:48.348Z,9.83
2018-02-12T13:17:39.863Z,9.48
2018-02-12T13:20:11.140Z,9.42
2018-02-12T13:22:45.190Z,9.67
2018-02-12T13:27:57.804Z,9.88
2018-02-12T13:30:28.679Z,9.39
2018-02-12T13:33:00.434Z,9.65
2018-02-12T13:38:13.978Z,10.01
2018-02-12T13:40:56.778Z,9.94
2018-02-12T13:43:27.708Z,9.45
2018-02-12T13:45:58.789Z,9.66
2018-02-12T13:48:38.293Z,9.87
2018-02-12T13:51:10.328Z,9.79
2018-02-12T13:53:45.761Z,9.83
2018-02-12T13:56:17.834Z,9.42
2018-02-12T13:58:50.096Z,9.22
2018-02-12T14:01:20.779Z,9.22
2018-02-12T14:03:51.493Z,9.30
2018-02-12T14:06:29.544Z,9.16
2018-02-12T14:09:01.164Z,9.06
2018-02-12T14:11:33.179Z,7.28
2018-02-12T14:14:04.162Z,8.82
2018-02-12T14:16:35.336Z,8.76
2018-02-12T14:19:06.773Z,8.70
2018-02-12T14:21:38.894Z,8.84
2018-02-12T14:24:11.316Z,8.83
2018-02-12T14:26:49.627Z,9.03
2018-02-12T14:29:26.400Z,8.73
2018-02-12T14:32:06.198Z,8.74
2018-02-12T14:34:37.262Z,8.75
2018-02-12T14:37:07.813Z,8.84
2018-02-12T14:39:43.780Z,8.58
2018-02-12T14:42:17.054Z,8.59
2018-02-12T14:44:50.206Z,8.56
2018-02-12T14:47:22.467Z,8.55
2018-02-12T14:49:53.581Z,8.60
2018-02-12T14:52:24.416Z,8.42
2018-02-12T14:54:55.622Z,8.17
2018-02-12T14:57:26.415Z,8.23
2018-02-12T14:59:57.600Z,8.23
2018-02-12T15:02:47.346Z,7.81
2018-02-12T15:05:18.733Z,8.02
2018-02-12T15:07:54.039Z,8.05
2018-02-12T15:11:18.777Z,7.87
2018-02-12T15:13:52.263Z,7.95
2018-02-12T15:16:27.303Z,7.79
2018-02-12T15:19:08.399Z,7.64
2018-02-12T15:21:43.255Z,7.48
2018-02-12T15:24:17.685Z,7.48
2018-02-12T15:26:51.801Z,7.19
2018-02-12T15:29:28.913Z,7.34
2018-02-12T15:32:03.894Z,7.32
2018-02-12T15:34:35.646Z,6.97
2018-02-12T15:37:06.794Z,7.23
2018-02-12T15:39:39.979Z,7.22
2018-02-12T15:42:12.805Z,7.19
2018-02-12T15:44:43.889Z,7.27
2018-02-12T15:47:19.683Z,7.20
2018-02-12T15:49:54.317Z,7.24
2018-02-12T16:11:49.512Z,7.20
2018-02-12T16:14:24.708Z,7.13
2018-02-12T16:16:57.299Z,6.88
2018-02-12T16:19:30.306Z,7.03
2018-02-12T16:22:02.448Z,7.05
2018-02-12T16:24:44.570Z,7.12
2018-02-12T16:31:03.431Z,6.70
2018-02-12T16:33:40.745Z,6.82
2018-02-12T16:45:28.736Z,6.50
2018-02-12T16:51:24.539Z,6.54
2018-02-12T16:53:56.078Z,6.71
2018-02-12T16:56:29.964Z,6.58
2018-02-12T17:03:46.303Z,6.44
2018-02-12T17:16:41.030Z,6.25
2018-02-12T17:19:14.942Z,6.28
2018-02-12T17:21:47.150Z,6.26
2018-02-12T17:24:18.729Z,6.13
2018-02-12T17:26:51.120Z,6.22
2018-02-12T17:29:23.909Z,6.20
2018-02-12T17:31:59.600Z,6.25
2018-02-12T17:34:39.668Z,6.10
2018-02-12T17:45:30.515Z,6.43
2018-02-12T17:48:06.337Z,6.24
2018-02-12T17:50:46.774Z,6.37
2018-02-12T17:53:32.534Z,6.25
2018-02-12T17:56:13.948Z,5.71
2018-02-12T17:58:47.418Z,6.31
2018-02-12T18:01:20.634Z,6.27
2018-02-12T18:03:53.763Z,6.31
2018-02-12T18:06:29.337Z,6.34
2018-02-12T18:09:03.930Z,6.25
2018-02-12T18:11:36.191Z,6.22
2018-02-12T18:18:31.146Z,6.20
2018-02-12T18:24:09.978Z,6.15
2018-02-12T18:38:34.445Z,5.74
2018-02-12T18:41:13.967Z,5.82
2018-02-12T18:53:08.601Z,6.08
2018-02-12T18:55:42.558Z,6.00
2018-02-12T18:58:16.752Z,5.84
2018-02-12T19:01:02.706Z,5.88
2018-02-12T19:06:33.672Z,5.96
2018-02-12T19:09:12.028Z,6.15
2018-02-12T19:11:54.229Z,6.18
2018-02-12T19:23:46.987Z,5.84
2018-02-12T19:29:34.586Z,5.91
2018-02-12T19:32:20.376Z,5.79
2018-02-12T19:34:56.717Z,5.84
2018-02-12T19:37:36.291Z,5.93
2018-02-12T19:43:00.917Z,5.80
2018-02-12T19:45:35.082Z,5.62
2018-02-12T19:48:12.537Z,5.81
2018-02-12T19:50:46.578Z,5.88
2018-02-12T19:53:27.200Z,5.45
2018-02-12T20:05:44.734Z,5.72
2018-02-12T20:19:34.841Z,5.64
2018-02-12T20:25:05.432Z,5.75
2018-02-12T20:27:46.063Z,5.59
2018-02-12T20:33:08.921Z,5.76
2018-02-12T20:35:46.020Z,5.75
2018-02-12T20:39:32.889Z,5.84
2018-02-12T20:42:10.158Z,5.73
2018-02-12T20:44:49.401Z,5.81
2018-02-12T20:47:28.703Z,5.85
2018-02-12T20:50:04.817Z,5.83
2018-02-12T20:52:47.787Z,5.80
2018-02-12T20:58:01.544Z,5.62
2018-02-12T21:07:36.078Z,5.44
2018-02-12T21:13:19.937Z,5.21
2018-02-12T21:15:54.248Z,5.20
2018-02-12T21:18:28.938Z,5.04
2018-02-12T21:24:23.137Z,4.61
2018-02-12T21:32:26.634Z,4.48
2018-02-12T21:37:46.163Z,4.37
2018-02-12T21:40:20.470Z,4.33
2018-02-12T21:42:54.076Z,4.17
2018-02-12T21:48:07.738Z,3.86
2018-02-12T21:50:40.723Z,3.88
2018-02-12T21:53:13.323Z,3.90
2018-02-12T21:58:27.895Z,3.67
2018-02-12T22:01:03.409Z,3.68
2018-02-12T22:09:20.452Z,3.88
2018-02-12T22:11:51.732Z,3.77
2018-02-12T22:14:24.182Z,3.71
2018-02-12T22:16:54.613Z,3.59
2018-02-12T22:19:25.242Z,3.64
2018-02-12T22:21:55.856Z,3.64
2018-02-12T22:24:26.595Z,3.75
2018-02-12T22:26:57.755Z,3.67
2018-02-12T22:29:28.859Z,3.67
2018-02-12T22:31:59.971Z,3.78
2018-02-12T22:34:35.678Z,3.74
2018-02-12T22:37:07.388Z,3.82
2018-02-12T22:39:38.053Z,3.82
2018-02-12T22:50:55.712Z,3.72
2018-02-12T22:56:18.686Z,3.73
2018-02-12T22:58:51.608Z,3.75
2018-02-12T23:01:25.706Z,3.85
2018-02-12T23:04:49.246Z,3.83
2018-02-12T23:17:48.307Z,3.87
2018-02-12T23:25:37.509Z,3.92
2018-02-12T23:28:09.402Z,3.89
2018-02-12T23:33:37.950Z,3.93
2018-02-12T23:45:58.934Z,3.62
2018-02-12T23:56:28.811Z,3.59
